Time;durP1;ratioP1;P1;durP2;ratioP2;P2;SDS_P1;SDS_P2;PMS_P1;PMS_P2;Temp;Humidity;BMP_temperature;BMP_pressure;BME280_temperature;BME280_humidity;BME280_pressure;Samples;Min_cycle;Max_cycle;Signal;HPM_P1;HPM_P2
2023/03/17 00:00:12;;;;;;;20.33;9.30;;;0.30;99.90;;;;;;8361101;28;20268;-83
2023/03/17 00:04:13;;;;;;;22.37;10.03;;;0.40;99.90;;;;;;8363825;28;20282;-83
2023/03/17 00:08:26;;;;;;;21.97;10.03;;;0.50;99.90;;;;;;8365683;28;20184;-83
2023/03/17 00:12:26;;;;;;;17.90;10.27;;;0.60;99.90;;;;;;8365934;28;20192;-81
2023/03/17 00:16:28;;;;;;;19.60;10.03;;;0.70;99.90;;;;;;8365930;28;20240;-83
2023/03/17 00:20:31;;;;;;;20.93;9.73;;;0.80;99.90;;;;;;8379084;28;20181;-80
2023/03/17 00:24:33;;;;;;;18.90;8.97;;;0.80;99.90;;;;;;8373972;28;20191;-81
2023/03/17 00:28:33;;;;;;;17.33;8.73;;;0.90;99.90;;;;;;8373793;28;20197;-81
2023/03/17 00:32:34;;;;;;;20.53;9.40;;;0.90;99.90;;;;;;8373200;28;20188;-81
2023/03/17 00:36:36;;;;;;;20.23;9.10;;;1.00;99.90;;;;;;8371985;28;20220;-83
2023/03/17 00:40:37;;;;;;;17.33;8.87;;;1.00;99.90;;;;;;8378364;28;20189;-81
2023/03/17 00:44:38;;;;;;;18.27;8.60;;;1.00;99.90;;;;;;8373908;28;20281;-83
2023/03/17 00:48:39;;;;;;;16.03;9.23;;;1.10;99.90;;;;;;8372632;28;20181;-81
2023/03/17 00:52:40;;;;;;;18.67;9.23;;;1.00;99.90;;;;;;8377165;28;20216;-81
2023/03/17 00:56:42;;;;;;;17.23;8.93;;;1.00;99.90;;;;;;8372317;28;20212;-81
2023/03/17 01:00:44;;;;;;;15.87;8.80;;;0.90;99.90;;;;;;8374029;28;20186;-81
2023/03/17 01:04:45;;;;;;;14.37;7.40;;;0.90;99.90;;;;;;8375412;28;20185;-82
2023/03/17 01:08:46;;;;;;;14.33;7.97;;;0.80;99.90;;;;;;8366593;28;20196;-81
2023/03/17 01:12:47;;;;;;;15.03;8.80;;;0.80;99.90;;;;;;8373592;28;20216;-81
2023/03/17 01:16:49;;;;;;;16.70;8.47;;;0.80;99.90;;;;;;8368430;28;20208;-83
2023/03/17 01:20:52;;;;;;;14.03;7.50;;;0.70;99.90;;;;;;8376979;28;20207;-82
2023/03/17 01:24:52;;;;;;;16.20;8.30;;;0.70;99.90;;;;;;8370644;28;20273;-84
2023/03/17 01:28:53;;;;;;;15.07;8.27;;;0.80;99.90;;;;;;8372840;28;20529;-83
2023/03/17 01:32:55;;;;;;;20.10;9.77;;;0.80;99.90;;;;;;8374086;28;20189;-81
2023/03/17 01:36:56;;;;;;;17.77;8.93;;;0.80;99.90;;;;;;8376386;28;20224;-83
2023/03/17 01:40:57;;;;;;;16.20;7.57;;;0.70;99.90;;;;;;8371202;28;20181;-81
2023/03/17 01:45:00;;;;;;;14.07;8.33;;;0.60;99.90;;;;;;8372724;28;20181;-84
2023/03/17 01:49:19;;;;;;;15.40;8.23;;;0.60;99.90;;;;;;8367447;28;20193;-82
2023/03/17 01:53:22;;;;;;;14.93;8.93;;;0.50;99.90;;;;;;8369907;28;20280;-81
2023/03/17 01:57:28;;;;;;;18.27;8.87;;;0.50;99.90;;;;;;8373019;28;20300;-82
2023/03/17 02:01:36;;;;;;;17.37;8.93;;;0.40;99.90;;;;;;8367964;28;20188;-82
2023/03/17 02:05:38;;;;;;;18.13;9.47;;;0.40;99.90;;;;;;8371939;28;20182;-82
2023/03/17 02:09:39;;;;;;;19.17;9.47;;;0.30;99.90;;;;;;8372750;28;20213;-82
2023/03/17 02:13:40;;;;;;;15.40;8.10;;;0.20;99.90;;;;;;8374068;28;20186;-82
2023/03/17 02:17:41;;;;;;;18.33;9.07;;;0.00;99.90;;;;;;8369678;28;20214;-82
2023/03/17 02:21:48;;;;;;;18.63;8.97;;;-0.10;99.90;;;;;;8375017;28;20241;-82
2023/03/17 02:25:51;;;;;;;17.43;9.03;;;-0.30;99.90;;;;;;8359457;28;20276;-84
2023/03/17 02:29:52;;;;;;;16.60;8.60;;;-0.40;99.90;;;;;;8386026;28;20244;-82
2023/03/17 02:33:53;;;;;;;18.17;8.20;;;-0.60;99.90;;;;;;8371083;28;20362;-82
2023/03/17 02:37:55;;;;;;;16.73;8.80;;;-0.70;1.00;;;;;;8368334;28;20248;-82
2023/03/17 02:41:56;;;;;;;18.27;7.70;;;-0.90;1.00;;;;;;8369750;28;20185;-82
2023/03/17 02:45:56;;;;;;;14.47;7.23;;;-1.10;1.00;;;;;;8368663;28;20267;-82
2023/03/17 02:49:58;;;;;;;19.13;7.23;;;-1.20;1.00;;;;;;8370023;28;20189;-82
2023/03/17 02:53:59;;;;;;;13.80;7.70;;;-1.30;1.00;;;;;;8364956;28;20185;-82
2023/03/17 02:58:01;;;;;;;14.57;8.00;;;-1.50;1.00;;;;;;8364076;28;20215;-82
2023/03/17 03:02:02;;;;;;;17.47;8.37;;;-1.60;1.00;;;;;;8374959;28;20184;-82
2023/03/17 03:06:03;;;;;;;17.63;7.80;;;-1.60;62.30;;;;;;8369176;28;20186;-82
2023/03/17 03:10:04;;;;;;;14.23;7.00;;;-1.70;99.90;;;;;;8384660;28;20308;-82
2023/03/17 03:14:07;;;;;;;17.70;8.37;;;-1.70;99.90;;;;;;8369105;28;20192;-82
2023/03/17 03:18:07;;;;;;;15.60;7.10;;;-1.70;99.90;;;;;;8370232;28;20241;-82
2023/03/17 03:22:08;;;;;;;16.67;7.23;;;-1.80;99.90;;;;;;8368584;28;20187;-82
2023/03/17 03:26:09;;;;;;;15.33;6.57;;;-1.80;99.90;;;;;;8368723;28;20189;-82
2023/03/17 03:30:10;;;;;;;13.13;6.63;;;-1.90;99.90;;;;;;8370868;28;20189;-83
2023/03/17 03:34:11;;;;;;;16.97;7.83;;;-2.00;99.90;;;;;;8374665;28;20208;-82
2023/03/17 03:38:12;;;;;;;15.33;7.47;;;-1.90;1.00;;;;;;8370235;28;20211;-82
2023/03/17 03:42:13;;;;;;;16.77;8.20;;;-1.90;1.00;;;;;;8369762;28;20198;-81
2023/03/17 03:46:14;;;;;;;13.03;7.27;;;-1.90;1.00;;;;;;8366317;28;20186;-81
2023/03/17 03:50:15;;;;;;;13.57;7.10;;;-1.90;1.00;;;;;;8370183;28;20328;-82
2023/03/17 03:54:16;;;;;;;14.07;7.73;;;-2.00;1.00;;;;;;8384296;28;20233;-81
2023/03/17 03:58:17;;;;;;;11.70;6.87;;;-2.00;1.00;;;;;;8372930;28;20243;-81
2023/03/17 04:02:17;;;;;;;14.50;7.03;;;-1.90;1.00;;;;;;8372953;28;20187;-81
2023/03/17 04:06:18;;;;;;;10.70;6.20;;;-1.90;1.00;;;;;;8366222;28;20196;-82
2023/03/17 04:10:19;;;;;;;15.03;7.30;;;-1.90;12.90;;;;;;8368879;28;20194;-81
2023/03/17 04:14:20;;;;;;;11.73;7.10;;;-1.80;36.80;;;;;;8366887;28;20197;-81
2023/03/17 04:18:20;;;;;;;12.80;6.23;;;-1.80;54.50;;;;;;8369259;28;20277;-81
2023/03/17 04:22:21;;;;;;;16.17;7.87;;;-1.80;56.40;;;;;;8367560;28;20201;-81
2023/03/17 04:26:22;;;;;;;14.43;8.83;;;-1.80;58.40;;;;;;8371060;28;20179;-82
2023/03/17 04:30:23;;;;;;;15.87;9.60;;;-1.80;99.90;;;;;;8365626;28;20207;-81
2023/03/17 04:34:24;;;;;;;12.03;8.47;;;-1.80;99.90;;;;;;8364918;28;20227;-82
2023/03/17 04:38:24;;;;;;;12.50;7.13;;;-1.80;99.90;;;;;;8372698;28;20234;-81
2023/03/17 04:42:25;;;;;;;10.80;6.23;;;-1.80;99.90;;;;;;8372352;28;20188;-82
2023/03/17 04:46:26;;;;;;;10.77;6.30;;;-1.80;99.90;;;;;;8368854;28;20207;-81
2023/03/17 04:50:27;;;;;;;15.90;7.40;;;-1.80;99.90;;;;;;8372672;28;20932;-81
2023/03/17 04:54:28;;;;;;;20.93;8.83;;;-1.80;99.90;;;;;;8364843;28;20202;-81
2023/03/17 04:58:29;;;;;;;29.50;11.13;;;-1.90;99.90;;;;;;8370969;28;20421;-81
2023/03/17 05:02:30;;;;;;;35.97;13.03;;;-1.90;99.90;;;;;;8369626;28;20194;-81
2023/03/17 05:06:30;;;;;;;22.20;9.30;;;-1.80;99.90;;;;;;8371071;28;20195;-81
2023/03/17 05:10:31;;;;;;;11.23;5.73;;;-1.80;99.90;;;;;;8370038;28;20193;-81
2023/03/17 05:14:32;;;;;;;16.07;7.57;;;-1.80;99.90;;;;;;8371527;28;20213;-81
2023/03/17 05:18:33;;;;;;;15.90;6.33;;;-1.80;99.90;;;;;;8372759;28;20219;-79
2023/03/17 05:22:34;;;;;;;15.47;6.50;;;-1.80;99.90;;;;;;8369737;28;20266;-79
2023/03/17 05:26:35;;;;;;;14.47;5.60;;;-1.70;99.90;;;;;;8371280;28;20465;-79
2023/03/17 05:30:35;;;;;;;12.57;5.70;;;-1.60;99.90;;;;;;8374004;28;20189;-79
2023/03/17 05:34:36;;;;;;;11.43;6.37;;;-1.50;99.90;;;;;;8368079;28;20211;-79
2023/03/17 05:38:37;;;;;;;13.27;6.90;;;-1.40;99.90;;;;;;8376887;28;20221;-79
2023/03/17 05:42:38;;;;;;;19.80;7.97;;;-1.20;99.90;;;;;;8368191;28;20181;-79
2023/03/17 05:46:39;;;;;;;19.60;8.67;;;-1.10;97.30;;;;;;8369601;28;20184;-79
2023/03/17 05:50:40;;;;;;;24.57;10.43;;;-0.80;23.70;;;;;;8373200;28;20551;-79
2023/03/17 05:54:41;;;;;;;28.43;12.80;;;-0.60;1.00;;;;;;8369481;28;20200;-79
2023/03/17 05:58:42;;;;;;;40.67;16.37;;;-0.40;99.90;;;;;;8371543;28;20248;-79
2023/03/17 06:02:42;;;;;;;38.60;15.83;;;-0.10;99.90;;;;;;8370750;28;20169;-79
2023/03/17 06:06:43;;;;;;;40.00;19.17;;;0.20;99.90;;;;;;8371604;28;20202;-80
2023/03/17 06:10:46;;;;;;;33.07;16.90;;;0.50;99.90;;;;;;8371731;28;20185;-79
2023/03/17 06:14:46;;;;;;;61.53;24.43;;;0.80;7.30;;;;;;8352059;28;20410;-79
2023/03/17 06:18:48;;;;;;;53.47;23.83;;;1.10;1.00;;;;;;8368999;28;20208;-79
2023/03/17 06:22:49;;;;;;;42.33;19.07;;;1.40;1.00;;;;;;8371732;28;20190;-79
2023/03/17 06:26:51;;;;;;;28.50;14.47;;;1.70;1.00;;;;;;8372184;28;20196;-79
2023/03/17 06:30:52;;;;;;;25.00;10.80;;;2.10;99.90;;;;;;8371049;28;20197;-80
2023/03/17 06:34:53;;;;;;;12.47;6.47;;;2.50;99.90;;;;;;8368531;28;20201;-79
2023/03/17 06:38:54;;;;;;;11.07;3.97;;;2.90;99.90;;;;;;8370177;28;20272;-79
2023/03/17 06:42:55;;;;;;;9.53;4.60;;;3.20;99.90;;;;;;8370434;28;20183;-79
2023/03/17 06:46:56;;;;;;;11.60;6.77;;;3.50;99.90;;;;;;8372588;28;20198;-79
2023/03/17 06:50:57;;;;;;;9.03;5.17;;;3.80;99.90;;;;;;8370417;28;20177;-80
2023/03/17 06:54:58;;;;;;;9.20;4.47;;;4.00;99.90;;;;;;8371172;28;20185;-80
2023/03/17 06:58:59;;;;;;;5.83;3.57;;;4.30;96.40;;;;;;8373577;28;20285;-79
2023/03/17 07:03:00;;;;;;;9.33;3.93;;;4.60;90.70;;;;;;8369876;28;20268;-78
2023/03/17 07:07:01;;;;;;;14.20;8.93;;;4.90;26.50;;;;;;8352694;28;20221;-78
2023/03/17 07:11:03;;;;;;;10.17;5.70;;;5.10;5.90;;;;;;8366542;28;20209;-79
2023/03/17 07:15:04;;;;;;;5.63;3.63;;;5.30;1.00;;;;;;8367465;28;20181;-78
2023/03/17 07:19:06;;;;;;;7.40;3.30;;;5.50;1.00;;;;;;8364813;28;20213;-79
2023/03/17 07:23:13;;;;;;;6.10;3.00;;;5.70;1.00;;;;;;8366850;28;20186;-79
2023/03/17 07:27:15;;;;;;;6.57;3.50;;;5.80;1.00;;;;;;8365983;28;20193;-79
2023/03/17 07:31:16;;;;;;;5.93;3.37;;;6.00;1.00;;;;;;8369878;28;20284;-79
2023/03/17 07:35:18;;;;;;;5.23;3.07;;;6.30;1.00;;;;;;8367873;28;20205;-79
2023/03/17 07:39:18;;;;;;;7.77;3.20;;;6.50;1.00;;;;;;8366290;28;20216;-80
2023/03/17 07:43:19;;;;;;;7.67;3.27;;;6.80;1.00;;;;;;8381277;28;20193;-79
2023/03/17 07:47:20;;;;;;;7.13;3.40;;;7.20;1.00;;;;;;8382771;28;20178;-80
2023/03/17 07:51:26;;;;;;;5.50;3.10;;;7.60;1.00;;;;;;8401983;28;20252;-79
2023/03/17 07:55:27;;;;;;;5.00;3.60;;;7.90;1.00;;;;;;8408084;28;20197;-80
2023/03/17 07:59:28;;;;;;;10.87;6.30;;;8.20;1.00;;;;;;8412045;28;20188;-80
2023/03/17 08:03:30;;;;;;;6.93;3.20;;;8.50;1.00;;;;;;8410550;28;20208;-80
2023/03/17 08:07:31;;;;;;;9.33;4.80;;;8.90;1.00;;;;;;8407236;28;20202;-79
2023/03/17 08:11:32;;;;;;;6.63;3.70;;;9.20;1.00;;;;;;8384286;28;20217;-79
2023/03/17 08:15:32;;;;;;;6.53;3.13;;;9.50;1.00;;;;;;8376709;28;20247;-79
2023/03/17 08:19:34;;;;;;;6.63;3.70;;;9.80;1.00;;;;;;8364216;28;20287;-81
2023/03/17 08:23:35;;;;;;;5.33;2.80;;;10.00;1.00;;;;;;8368816;28;20185;-80
2023/03/17 08:27:36;;;;;;;6.67;3.30;;;10.20;1.00;;;;;;8364576;28;20185;-80
2023/03/17 08:31:37;;;;;;;5.93;3.03;;;10.40;1.00;;;;;;8350147;28;20205;-80
2023/03/17 08:35:40;;;;;;;5.20;2.70;;;10.60;1.00;;;;;;8368295;28;20271;-80
2023/03/17 08:39:41;;;;;;;3.20;1.97;;;10.50;1.00;;;;;;8375174;28;20189;-80
2023/03/17 08:43:42;;;;;;;7.77;2.47;;;10.60;1.00;;;;;;8377994;28;20185;-80
2023/03/17 08:47:46;;;;;;;2.97;1.90;;;10.50;1.00;;;;;;8369380;28;20190;-79
2023/03/17 08:51:47;;;;;;;5.37;3.63;;;10.60;1.00;;;;;;8372905;28;20264;-78
2023/03/17 08:55:48;;;;;;;4.33;3.00;;;10.60;1.00;;;;;;8378319;28;20243;-79
2023/03/17 08:59:50;;;;;;;12.23;6.47;;;10.70;1.00;;;;;;8375322;28;20258;-78
2023/03/17 09:03:53;;;;;;;4.10;2.70;;;10.90;1.00;;;;;;8371800;28;20217;-78
2023/03/17 09:07:54;;;;;;;2.93;2.27;;;11.00;1.00;;;;;;8376302;28;20204;-79
2023/03/17 09:11:55;;;;;;;3.13;1.93;;;11.10;1.00;;;;;;8368395;28;20238;-79
2023/03/17 09:15:56;;;;;;;4.03;2.40;;;11.30;1.00;;;;;;8370446;28;20209;-79
2023/03/17 09:19:58;;;;;;;5.53;1.90;;;11.50;1.00;;;;;;8371723;28;20200;-79
2023/03/17 09:23:59;;;;;;;4.00;2.60;;;11.60;1.00;;;;;;8377111;28;20181;-79
2023/03/17 09:28:00;;;;;;;2.10;1.90;;;11.90;1.00;;;;;;8368087;28;20196;-79
2023/03/17 09:32:01;;;;;;;3.47;2.03;;;12.10;1.00;;;;;;8370472;28;20190;-79
2023/03/17 09:36:01;;;;;;;2.80;1.97;;;12.40;1.00;;;;;;8371863;28;20212;-78
2023/03/17 09:40:08;;;;;;;3.17;1.87;;;12.50;1.00;;;;;;8370658;28;20181;-78
2023/03/17 09:44:14;;;;;;;3.17;2.20;;;12.50;1.00;;;;;;8369850;28;20190;-79
2023/03/17 09:48:52;;;;;;;3.77;2.40;;;12.60;1.00;;;;;;8374551;28;20406;-79
2023/03/17 09:52:57;;;;;;;3.90;2.00;;;12.60;1.00;;;;;;8372233;28;20205;-79
2023/03/17 09:57:25;;;;;;;3.60;2.00;;;12.40;1.00;;;;;;8373052;28;20216;-79
2023/03/17 10:01:26;;;;;;;5.47;2.77;;;12.30;1.00;;;;;;8373017;28;20227;-79
2023/03/17 10:05:33;;;;;;;4.73;2.90;;;12.40;1.00;;;;;;8369926;28;20185;-79
2023/03/17 10:09:45;;;;;;;4.33;3.13;;;12.40;1.00;;;;;;8371709;28;20290;-80
2023/03/17 10:13:46;;;;;;;4.03;2.43;;;12.50;1.00;;;;;;8368722;28;20189;-79
2023/03/17 10:17:47;;;;;;;5.93;2.57;;;12.80;1.00;;;;;;8368626;28;20304;-78
2023/03/17 10:21:52;;;;;;;3.13;1.93;;;12.90;1.00;;;;;;8372164;28;20248;-79
2023/03/17 10:25:56;;;;;;;4.03;2.60;;;12.90;1.00;;;;;;8367080;28;20198;-79
2023/03/17 10:29:57;;;;;;;3.57;2.10;;;12.90;1.00;;;;;;8382552;28;20190;-79
2023/03/17 10:34:13;;;;;;;8.60;4.03;;;12.70;1.00;;;;;;8367013;28;20220;-79
2023/03/17 10:38:18;;;;;;;5.03;2.67;;;12.70;1.00;;;;;;8368756;28;20209;-79
2023/03/17 10:42:24;;;;;;;5.13;2.53;;;12.80;1.00;;;;;;8373846;28;20197;-79
2023/03/17 10:46:25;;;;;;;5.47;2.47;;;12.90;1.00;;;;;;8375107;28;20197;-79
2023/03/17 10:50:30;;;;;;;6.33;2.70;;;12.90;1.00;;;;;;8365046;28;20197;-79
2023/03/17 10:54:36;;;;;;;3.83;2.70;;;12.80;1.00;;;;;;8372471;28;20268;-79
2023/03/17 10:58:47;;;;;;;3.70;2.50;;;12.80;1.00;;;;;;8370916;28;20218;-80
2023/03/17 11:02:56;;;;;;;5.30;2.83;;;12.70;1.00;;;;;;8375683;28;20186;-80
2023/03/17 11:07:04;;;;;;;5.10;3.10;;;12.80;1.00;;;;;;8375849;28;20225;-79
2023/03/17 11:11:21;;;;;;;6.33;2.80;;;12.80;1.00;;;;;;8387221;28;20186;-79
2023/03/17 11:15:22;;;;;;;5.30;3.43;;;13.10;1.00;;;;;;8387094;28;20185;-79
2023/03/17 11:19:41;;;;;;;6.13;3.30;;;13.20;1.00;;;;;;8408375;28;20267;-79
2023/03/17 11:23:45;;;;;;;5.43;2.93;;;13.30;1.00;;;;;;8410413;28;20210;-79
2023/03/17 11:27:54;;;;;;;5.17;3.30;;;13.30;1.00;;;;;;8422454;28;20185;-79
2023/03/17 11:32:01;;;;;;;6.87;3.73;;;13.40;1.00;;;;;;8409805;28;20270;-79
2023/03/17 11:36:36;;;;;;;9.00;3.50;;;13.50;1.00;;;;;;8408869;28;20270;-79
2023/03/17 11:41:16;;;;;;;7.93;2.90;;;13.70;1.00;;;;;;8369246;28;20189;-79
2023/03/17 11:45:30;;;;;;;5.27;3.13;;;13.80;1.00;;;;;;8355656;28;20193;-79
2023/03/17 11:49:37;;;;;;;4.67;2.60;;;14.10;1.00;;;;;;8372573;28;20206;-79
2023/03/17 11:53:46;;;;;;;7.53;2.90;;;14.20;1.00;;;;;;8367658;28;20252;-80
2023/03/17 11:58:09;;;;;;;7.10;3.20;;;14.50;1.00;;;;;;8369434;28;20213;-79
2023/03/17 12:02:22;;;;;;;8.17;3.57;;;14.50;1.00;;;;;;8361281;28;20205;-80
2023/03/17 12:06:34;;;;;;;6.37;4.50;;;14.60;1.00;;;;;;8372907;28;20185;-79
2023/03/17 12:10:46;;;;;;;8.67;3.73;;;14.50;1.00;;;;;;8371977;28;20190;-79
2023/03/17 12:14:51;;;;;;;5.53;3.73;;;14.50;1.00;;;;;;8366455;28;20246;-79
2023/03/17 12:18:51;;;;;;;8.83;3.67;;;14.40;1.00;;;;;;8368512;28;20209;-79
2023/03/17 12:23:13;;;;;;;4.77;3.53;;;14.30;1.00;;;;;;8365149;28;20231;-79
2023/03/17 12:27:15;;;;;;;8.00;3.87;;;14.30;1.00;;;;;;8370474;28;20177;-79
2023/03/17 12:31:30;;;;;;;7.13;3.80;;;14.30;1.00;;;;;;8371700;28;20196;-79
2023/03/17 12:35:37;;;;;;;4.40;3.70;;;14.30;1.00;;;;;;8368047;28;20216;-80
2023/03/17 12:39:44;;;;;;;4.33;3.60;;;14.30;1.00;;;;;;8368122;28;20216;-79
2023/03/17 12:44:17;;;;;;;5.10;3.57;;;14.20;1.00;;;;;;8365181;28;20186;-79
2023/03/17 12:48:44;;;;;;;7.40;4.07;;;14.10;1.00;;;;;;8363769;28;20190;-79
2023/03/17 12:52:52;;;;;;;7.93;4.77;;;14.30;1.00;;;;;;8354235;28;20190;-79
2023/03/17 12:57:11;;;;;;;4.90;3.17;;;14.40;1.00;;;;;;8365403;28;20232;-79
2023/03/17 13:01:33;;;;;;;7.97;4.50;;;14.40;1.00;;;;;;8368618;28;20778;-79
2023/03/17 13:05:36;;;;;;;5.70;4.63;;;14.40;1.00;;;;;;8365808;28;20178;-79
2023/03/17 13:09:57;;;;;;;5.67;3.67;;;14.40;1.00;;;;;;8367071;28;20201;-79
2023/03/17 13:14:15;;;;;;;7.43;5.00;;;14.40;1.00;;;;;;8357947;28;20210;-79
2023/03/17 13:18:15;;;;;;;7.60;4.53;;;14.50;1.00;;;;;;8372881;28;20228;-79
2023/03/17 13:22:19;;;;;;;7.67;4.23;;;14.50;1.00;;;;;;8365822;28;20189;-79
2023/03/17 13:26:41;;;;;;;6.03;4.13;;;14.50;1.00;;;;;;8376421;28;20245;-79
2023/03/17 13:30:51;;;;;;;7.33;4.77;;;14.50;1.00;;;;;;8375865;28;20192;-78
2023/03/17 13:35:16;;;;;;;6.30;4.33;;;14.70;1.00;;;;;;8373505;28;20256;-79
2023/03/17 13:39:41;;;;;;;6.43;3.97;;;14.60;1.00;;;;;;8384795;28;20277;-78
2023/03/17 13:43:45;;;;;;;5.27;3.70;;;14.60;1.00;;;;;;8371847;28;20182;-79
2023/03/17 13:47:51;;;;;;;8.40;4.57;;;14.60;1.00;;;;;;8378521;28;20208;-78
2023/03/17 13:52:15;;;;;;;9.80;4.37;;;14.60;1.00;;;;;;8372396;28;20197;-78
2023/03/17 13:56:21;;;;;;;9.17;3.80;;;14.70;1.00;;;;;;8322353;28;20230;-78
2023/03/17 14:10:51;;;;;;;8.50;4.17;;;14.20;1.00;;;;;;8370017;28;20247;-78
2023/03/17 14:15:22;;;;;;;7.87;4.70;;;14.20;1.00;;;;;;8370089;28;20307;-78
2023/03/17 14:19:28;;;;;;;7.70;4.70;;;14.00;1.00;;;;;;8385544;28;20240;-78
2023/03/17 14:23:30;;;;;;;7.13;4.77;;;13.90;1.00;;;;;;8372229;28;20197;-78
2023/03/17 14:32:31;;;;;;;5.67;4.10;;;13.70;1.00;;;;;;8371857;28;20219;-78
2023/03/17 14:36:32;;;;;;;7.20;4.23;;;13.70;1.00;;;;;;8370646;28;20249;-78
2023/03/17 14:40:36;;;;;;;7.77;4.63;;;13.60;1.00;;;;;;8370313;28;20252;-79
2023/03/17 14:45:07;;;;;;;10.83;5.93;;;13.50;1.00;;;;;;8377969;28;20182;-78
2023/03/17 14:49:14;;;;;;;8.00;4.90;;;13.40;1.00;;;;;;8383866;28;20197;-79
2023/03/17 14:53:15;;;;;;;6.80;4.30;;;13.50;1.00;;;;;;8389001;28;20181;-80
2023/03/17 14:57:16;;;;;;;7.00;5.53;;;13.50;1.00;;;;;;8412138;28;20213;-80
2023/03/17 15:06:25;;;;;;;7.53;4.53;;;13.50;1.00;;;;;;8405256;28;20210;-80
2023/03/17 15:10:32;;;;;;;8.73;3.90;;;13.60;1.00;;;;;;8407693;28;20192;-82
2023/03/17 15:14:37;;;;;;;7.13;3.87;;;13.60;1.00;;;;;;8398292;28;20197;-79
2023/03/17 15:18:38;;;;;;;10.13;6.83;;;13.60;1.00;;;;;;8372608;28;20205;-79
2023/03/17 15:22:43;;;;;;;7.70;4.50;;;13.60;1.00;;;;;;8370229;28;20186;-78
2023/03/17 15:26:44;;;;;;;5.33;4.33;;;13.50;1.00;;;;;;8368286;28;20192;-79
2023/03/17 15:30:52;;;;;;;17.33;8.80;;;13.40;1.00;;;;;;8370883;28;20182;-78
2023/03/17 15:34:57;;;;;;;18.17;10.40;;;13.30;1.00;;;;;;8371890;28;20276;-79
2023/03/17 15:38:59;;;;;;;9.97;6.00;;;13.20;1.00;;;;;;8383815;28;20213;-79
2023/03/17 15:43:00;;;;;;;5.80;4.63;;;13.20;1.00;;;;;;8368524;28;20225;-79
2023/03/17 15:47:01;;;;;;;11.47;6.47;;;13.10;1.00;;;;;;8372903;28;20545;-79
2023/03/17 15:51:04;;;;;;;7.13;5.10;;;13.00;1.00;;;;;;8372316;28;20178;-79
2023/03/17 15:55:13;;;;;;;11.20;6.83;;;12.90;1.00;;;;;;8384923;28;20276;-79
2023/03/17 15:59:14;;;;;;;19.17;10.13;;;12.80;1.00;;;;;;8373029;28;20577;-79
2023/03/17 16:03:26;;;;;;;12.40;7.27;;;12.70;1.00;;;;;;8363574;28;20260;-79
2023/03/17 16:07:27;;;;;;;10.37;4.73;;;12.50;1.00;;;;;;8365322;28;20190;-79
2023/03/17 16:11:30;;;;;;;13.53;6.60;;;12.40;1.00;;;;;;8368243;28;20320;-79
2023/03/17 16:15:35;;;;;;;12.10;5.90;;;12.20;1.00;;;;;;8367323;28;20475;-78
2023/03/17 16:19:36;;;;;;;9.57;5.23;;;12.10;1.00;;;;;;8365746;28;20260;-78
2023/03/17 16:23:36;;;;;;;12.77;5.03;;;11.90;1.00;;;;;;8350873;28;20182;-79
2023/03/17 16:27:37;;;;;;;10.83;6.20;;;11.70;1.00;;;;;;8364676;28;20181;-79
2023/03/17 16:31:39;;;;;;;11.87;5.43;;;11.40;1.00;;;;;;8368423;28;20271;-79
2023/03/17 16:35:40;;;;;;;10.40;5.13;;;11.20;1.00;;;;;;8363251;28;20214;-80
2023/03/17 16:39:41;;;;;;;8.60;5.23;;;10.90;1.00;;;;;;8373223;28;20216;-78
2023/03/17 16:43:44;;;;;;;9.27;4.57;;;10.70;1.00;;;;;;8370631;28;20188;-78
2023/03/17 16:47:45;;;;;;;9.13;4.70;;;10.40;1.00;;;;;;8366459;28;20206;-79
2023/03/17 16:51:46;;;;;;;5.80;4.30;;;10.20;1.00;;;;;;8365771;28;20231;-79
2023/03/17 16:55:48;;;;;;;23.17;12.93;;;10.00;1.00;;;;;;8368112;28;20248;-79
2023/03/17 16:59:48;;;;;;;10.70;5.23;;;9.80;1.00;;;;;;8374884;28;20195;-79
2023/03/17 17:03:49;;;;;;;8.33;5.47;;;9.60;1.00;;;;;;8372556;28;20644;-78
2023/03/17 17:07:52;;;;;;;9.37;5.13;;;9.60;1.00;;;;;;8369291;28;20247;-78
2023/03/17 17:11:53;;;;;;;9.70;6.47;;;9.40;1.00;;;;;;8375919;28;20182;-78
2023/03/17 17:15:54;;;;;;;9.83;6.70;;;9.30;1.00;;;;;;8370056;28;20188;-78
2023/03/17 17:19:55;;;;;;;16.70;8.57;;;9.10;1.00;;;;;;8378232;28;20271;-79
2023/03/17 17:23:57;;;;;;;18.80;7.97;;;8.90;1.00;;;;;;8371324;28;20185;-79
2023/03/17 17:27:58;;;;;;;18.13;6.93;;;8.80;1.00;;;;;;8371138;28;20483;-79
2023/03/17 17:31:59;;;;;;;10.03;5.37;;;8.70;1.00;;;;;;8369194;28;20186;-83
2023/03/17 17:36:02;;;;;;;8.93;5.57;;;8.70;1.00;;;;;;8373487;28;20220;-82
2023/03/17 17:40:06;;;;;;;25.00;13.93;;;8.60;1.00;;;;;;8362071;28;20178;-83
2023/03/17 17:44:07;;;;;;;8.97;5.70;;;8.50;1.00;;;;;;8387909;28;20189;-82
2023/03/17 17:48:09;;;;;;;9.10;5.23;;;8.40;1.00;;;;;;8367832;28;20209;-83
2023/03/17 17:52:11;;;;;;;14.00;8.13;;;8.20;1.00;;;;;;8370621;28;20181;-83
2023/03/17 17:56:16;;;;;;;15.40;5.90;;;8.10;1.00;;;;;;8386599;28;20205;-83
2023/03/17 18:00:18;;;;;;;30.27;15.23;;;8.00;1.00;;;;;;8378641;28;20268;-83
2023/03/17 18:04:19;;;;;;;13.60;6.40;;;7.90;1.00;;;;;;8371969;28;20193;-83
2023/03/17 18:08:20;;;;;;;13.50;5.80;;;7.80;1.00;;;;;;8371503;28;20200;-83
2023/03/17 18:12:21;;;;;;;11.70;5.60;;;7.70;1.00;;;;;;8342905;28;20204;-83
2023/03/17 18:16:23;;;;;;;9.90;5.97;;;7.60;1.00;;;;;;8296091;28;20234;-83
2023/03/17 18:20:25;;;;;;;9.00;5.47;;;7.50;1.00;;;;;;8313593;28;20206;-83
2023/03/17 18:24:25;;;;;;;10.17;5.60;;;7.30;1.00;;;;;;8301734;28;20178;-83
2023/03/17 18:28:26;;;;;;;8.67;5.43;;;7.20;1.00;;;;;;8298828;28;20198;-83
2023/03/17 18:32:28;;;;;;;10.37;6.37;;;7.00;1.00;;;;;;8310125;28;20277;-84
2023/03/17 18:36:29;;;;;;;12.07;6.37;;;6.80;1.00;;;;;;8300984;28;20234;-83
2023/03/17 18:40:30;;;;;;;9.30;5.47;;;6.70;1.00;;;;;;8316317;28;20186;-83
2023/03/17 18:44:30;;;;;;;9.83;5.70;;;6.50;1.00;;;;;;8308678;28;20193;-82
2023/03/17 18:48:31;;;;;;;9.60;5.73;;;6.30;1.00;;;;;;8312826;28;20190;-83
2023/03/17 18:52:34;;;;;;;15.87;9.90;;;6.10;1.00;;;;;;8300090;28;20195;-83
2023/03/17 18:56:35;;;;;;;19.27;10.03;;;5.90;1.00;;;;;;8309152;28;20252;-83
2023/03/17 19:00:36;;;;;;;31.03;15.17;;;5.80;10.90;;;;;;8302869;28;20191;-82
2023/03/17 19:04:44;;;;;;;18.40;10.17;;;5.60;18.60;;;;;;8310547;28;20412;-83
2023/03/17 19:08:46;;;;;;;24.80;13.27;;;5.50;29.30;;;;;;8303297;28;20282;-83
2023/03/17 19:12:49;;;;;;;23.93;13.10;;;5.30;26.90;;;;;;8305212;28;20230;-83
2023/03/17 19:16:50;;;;;;;25.70;14.87;;;5.10;26.80;;;;;;8303210;28;20290;-83
2023/03/17 19:20:51;;;;;;;22.43;11.40;;;5.00;30.40;;;;;;8301331;28;20187;-83
2023/03/17 19:24:52;;;;;;;13.43;7.87;;;4.90;38.00;;;;;;8302958;28;20258;-82
2023/03/17 19:28:55;;;;;;;9.10;6.13;;;4.70;60.40;;;;;;8310677;28;20198;-83
2023/03/17 19:32:55;;;;;;;7.13;5.03;;;4.40;89.50;;;;;;8298716;28;20197;-83
2023/03/17 19:36:57;;;;;;;8.00;4.47;;;4.20;99.90;;;;;;8305343;28;20278;-82
2023/03/17 19:40:57;;;;;;;8.20;5.10;;;4.00;99.90;;;;;;8299186;28;20200;-83
2023/03/17 19:44:58;;;;;;;9.73;5.47;;;3.90;99.90;;;;;;8298337;28;20269;-82
2023/03/17 19:48:59;;;;;;;13.13;7.07;;;3.70;99.90;;;;;;8305653;28;20333;-83
2023/03/17 19:53:00;;;;;;;13.47;7.80;;;3.60;99.90;;;;;;8311119;28;20305;-82
2023/03/17 19:57:01;;;;;;;12.20;7.17;;;3.50;99.90;;;;;;8304924;28;20219;-82
2023/03/17 20:01:03;;;;;;;9.77;5.87;;;3.40;99.90;;;;;;8304444;28;20186;-82
2023/03/17 20:05:05;;;;;;;8.50;5.23;;;3.30;99.90;;;;;;8308013;28;20276;-82
2023/03/17 20:09:07;;;;;;;7.30;5.27;;;3.10;99.90;;;;;;8316144;28;20185;-82
2023/03/17 20:13:08;;;;;;;9.10;5.00;;;3.00;99.90;;;;;;8306852;28;20201;-82
2023/03/17 20:17:10;;;;;;;10.13;5.97;;;2.90;99.90;;;;;;8306862;28;20268;-82
2023/03/17 20:21:12;;;;;;;8.80;5.33;;;2.80;99.90;;;;;;8301408;28;20199;-82
2023/03/17 20:25:13;;;;;;;9.73;6.17;;;2.70;99.90;;;;;;8300545;28;20187;-82
2023/03/17 20:29:15;;;;;;;10.70;6.33;;;2.60;99.90;;;;;;8308469;28;20195;-82
2023/03/17 20:33:16;;;;;;;12.13;7.67;;;2.40;99.90;;;;;;8307604;28;20185;-81
2023/03/17 20:37:17;;;;;;;17.23;9.07;;;2.30;99.90;;;;;;8302278;28;20236;-82
2023/03/17 20:41:19;;;;;;;16.13;8.07;;;2.10;99.90;;;;;;8311912;28;20630;-82
2023/03/17 20:45:20;;;;;;;12.40;7.50;;;2.00;99.90;;;;;;8311394;28;20554;-82
2023/03/17 20:49:22;;;;;;;10.63;6.87;;;1.90;99.90;;;;;;8310272;28;20190;-82
2023/03/17 20:53:23;;;;;;;12.73;6.63;;;1.90;99.90;;;;;;8311953;28;20290;-82
2023/03/17 20:57:24;;;;;;;12.20;6.90;;;1.80;99.90;;;;;;8310806;28;20225;-82
2023/03/17 21:01:25;;;;;;;10.60;6.83;;;1.70;99.90;;;;;;8301597;28;20703;-82
2023/03/17 21:05:27;;;;;;;14.33;8.03;;;1.60;99.90;;;;;;8308491;28;20191;-82
2023/03/17 21:09:28;;;;;;;14.20;8.13;;;1.60;99.90;;;;;;8307943;28;20699;-82
2023/03/17 21:13:31;;;;;;;14.00;7.53;;;1.60;99.90;;;;;;8308837;28;20187;-82
2023/03/17 21:17:33;;;;;;;13.13;8.20;;;1.50;99.90;;;;;;8312868;28;20272;-82
2023/03/17 21:21:34;;;;;;;13.67;7.70;;;1.40;99.90;;;;;;8307820;28;20305;-81
2023/03/17 21:25:35;;;;;;;12.60;7.30;;;1.30;99.90;;;;;;8312319;28;20186;-82
2023/03/17 21:29:36;;;;;;;14.40;8.10;;;1.20;1.00;;;;;;8304435;28;20182;-82
2023/03/17 21:33:37;;;;;;;14.73;7.33;;;1.10;1.00;;;;;;8308231;28;20186;-81